createdAt,value
2022-08-05T00:01:36.347Z,19.91
2022-08-05T00:04:17.716Z,19.85
2022-08-05T00:06:47.046Z,19.79
2022-08-05T00:09:15.975Z,19.74
2022-08-05T00:11:55.913Z,19.70
2022-08-05T00:14:29.169Z,19.67
2022-08-05T00:17:01.891Z,19.66
2022-08-05T00:19:33.616Z,19.65
2022-08-05T00:22:11.222Z,19.66
2022-08-05T00:24:42.608Z,19.70
2022-08-05T00:27:14.110Z,19.75
2022-08-05T00:29:44.598Z,19.81
2022-08-05T00:32:15.440Z,19.84
2022-08-05T00:35:05.043Z,19.86
2022-08-05T00:37:35.574Z,19.87
2022-08-05T00:40:27.942Z,19.89
2022-08-05T00:42:59.489Z,19.90
2022-08-05T00:45:38.675Z,19.90
2022-08-05T00:48:16.742Z,19.88
2022-08-05T00:50:48.378Z,19.85
2022-08-05T00:54:01.026Z,19.82
2022-08-05T00:56:07.911Z,19.81
2022-08-05T00:58:36.958Z,19.77
2022-08-05T01:01:08.718Z,19.74
2022-08-05T01:03:38.517Z,19.71
2022-08-05T01:06:06.752Z,19.68
2022-08-05T01:08:44.331Z,19.64
2022-08-05T01:11:21.924Z,19.62
2022-08-05T01:14:03.826Z,19.57
2022-08-05T01:16:49.321Z,19.55
2022-08-05T01:19:30.381Z,19.54
2022-08-05T01:22:37.871Z,19.53
2022-08-05T01:25:40.610Z,19.55
2022-08-05T01:28:39.493Z,19.55
2022-08-05T01:31:27.279Z,19.58
2022-08-05T01:34:34.155Z,19.59
2022-08-05T01:37:36.531Z,19.62
2022-08-05T01:40:06.850Z,19.62
2022-08-05T01:42:36.680Z,19.63
2022-08-05T01:45:08.047Z,19.65
2022-08-05T01:47:39.328Z,19.65
2022-08-05T01:50:30.369Z,19.64
2022-08-05T01:53:03.411Z,19.61
2022-08-05T01:55:36.106Z,19.58
2022-08-05T01:58:15.556Z,19.57
2022-08-05T02:00:46.698Z,19.56
2022-08-05T02:03:29.261Z,19.55
2022-08-05T02:06:03.769Z,19.54
2022-08-05T02:08:57.985Z,19.51
2022-08-05T02:11:34.080Z,19.46
2022-08-05T02:14:08.185Z,19.43
2022-08-05T02:16:52.435Z,19.42
2022-08-05T02:19:35.961Z,19.40
2022-08-05T02:22:30.216Z,19.39
2022-08-05T02:25:08.973Z,19.39
2022-08-05T02:27:59.398Z,19.37
2022-08-05T02:30:32.483Z,19.34
2022-08-05T02:33:03.097Z,19.30
2022-08-05T02:35:37.821Z,19.29
2022-08-05T02:38:13.381Z,19.25
2022-08-05T02:40:47.497Z,19.24
2022-08-05T02:43:16.805Z,19.24
2022-08-05T02:45:51.926Z,19.24
2022-08-05T02:48:29.517Z,19.21
2022-08-05T02:51:00.206Z,19.20
2022-08-05T02:53:29.158Z,19.22
2022-08-05T02:56:15.735Z,19.22
2022-08-05T02:58:51.603Z,19.24
2022-08-05T03:01:23.636Z,19.27
2022-08-05T03:04:04.257Z,19.28
2022-08-05T03:06:55.041Z,19.27
2022-08-05T03:09:36.274Z,19.27
2022-08-05T03:12:06.634Z,19.27
2022-08-05T03:14:45.668Z,19.26
2022-08-05T03:17:13.942Z,19.26
2022-08-05T03:19:42.203Z,19.27
2022-08-05T03:22:16.705Z,19.26
2022-08-05T03:24:50.897Z,19.26
2022-08-05T03:27:20.746Z,19.26
2022-08-05T03:30:08.462Z,19.30
2022-08-05T03:32:36.668Z,19.29
2022-08-05T03:35:05.758Z,19.29
2022-08-05T03:37:41.643Z,19.29
2022-08-05T03:40:15.410Z,19.28
2022-08-05T03:42:52.892Z,19.26
2022-08-05T03:45:23.377Z,19.25
2022-08-05T03:47:51.926Z,19.24
2022-08-05T03:50:27.945Z,19.25
2022-08-05T03:55:51.092Z,19.23
2022-08-05T03:56:11.630Z,19.23
2022-08-05T03:58:44.806Z,19.23
2022-08-05T04:01:13.394Z,19.23
2022-08-05T04:04:10.686Z,19.23
2022-08-05T04:06:31.547Z,19.23
2022-08-05T04:08:59.267Z,19.24
2022-08-05T04:11:47.288Z,19.24
2022-08-05T04:14:17.996Z,19.29
2022-08-05T04:16:46.037Z,19.43
2022-08-05T04:19:14.116Z,19.58
2022-08-05T04:22:09.882Z,19.57
2022-08-05T04:24:29.468Z,19.65
2022-08-05T04:26:58.114Z,19.64
2022-08-05T04:29:27.266Z,19.62
2022-08-05T04:31:56.866Z,19.64
2022-08-05T04:34:33.814Z,19.66
2022-08-05T04:37:03.143Z,19.68
2022-08-05T04:39:32.187Z,19.72
2022-08-05T04:42:00.570Z,19.75
2022-08-05T04:44:31.347Z,19.81
2022-08-05T04:46:59.635Z,19.85
2022-08-05T04:49:39.004Z,19.89
2022-08-05T04:52:16.170Z,19.93
2022-08-05T04:54:43.794Z,19.96
2022-08-05T04:57:11.429Z,20.00
2022-08-05T04:59:40.745Z,20.04
2022-08-05T05:02:41.122Z,20.09
2022-08-05T05:05:01.649Z,20.15
2022-08-05T05:07:32.402Z,20.23
2022-08-05T05:10:04.501Z,20.34
2022-08-05T05:12:32.580Z,20.45
2022-08-05T05:15:03.726Z,20.52
2022-08-05T05:17:56.349Z,20.63
2022-08-05T05:20:28.393Z,20.72
2022-08-05T05:22:58.385Z,20.79
2022-08-05T05:25:32.576Z,20.86
2022-08-05T05:28:09.584Z,20.95
2022-08-05T05:30:38.613Z,21.05
2022-08-05T05:33:15.898Z,21.15
2022-08-05T05:35:47.445Z,21.26
2022-08-05T05:38:26.946Z,21.35
2022-08-05T05:40:56.548Z,21.43
2022-08-05T05:43:54.850Z,21.51
2022-08-05T05:46:17.530Z,21.76
2022-08-05T05:48:48.470Z,22.43
2022-08-05T05:51:23.866Z,22.86
2022-08-05T05:53:58.287Z,22.88
2022-08-05T05:56:33.161Z,23.03
2022-08-05T05:59:05.711Z,23.35
2022-08-05T06:01:37.001Z,23.42
2022-08-05T06:04:12.649Z,23.49
2022-08-05T06:06:47.470Z,23.47
2022-08-05T06:09:24.959Z,23.46
2022-08-05T06:11:59.216Z,23.46
2022-08-05T06:14:30.875Z,23.46
2022-08-05T06:16:59.359Z,23.50
2022-08-05T06:19:35.107Z,23.49
2022-08-05T06:22:04.133Z,23.50
2022-08-05T06:24:32.859Z,23.52
2022-08-05T06:27:00.910Z,23.56
2022-08-05T06:29:46.447Z,23.59
2022-08-05T06:32:21.339Z,23.65
2022-08-05T06:34:58.307Z,23.71
2022-08-05T06:37:57.083Z,23.75
2022-08-05T06:40:18.392Z,23.84
2022-08-05T06:42:51.546Z,23.94
2022-08-05T06:46:03.008Z,24.03
2022-08-05T06:48:47.161Z,24.16
2022-08-05T06:50:57.478Z,24.23
2022-08-05T06:53:27.665Z,24.36
2022-08-05T06:56:00.636Z,24.45
2022-08-05T06:58:35.082Z,24.51
2022-08-05T07:01:06.319Z,24.58
2022-08-05T07:03:34.863Z,24.67
2022-08-05T07:06:06.306Z,24.74
2022-08-05T07:08:47.526Z,24.84
2022-08-05T07:11:16.552Z,24.98
2022-08-05T07:14:20.045Z,25.15
2022-08-05T07:17:58.677Z,25.28
2022-08-05T07:22:37.392Z,25.40
2022-08-05T07:25:23.514Z,25.52
2022-08-05T07:27:58.741Z,25.82
2022-08-05T07:30:38.849Z,26.07
2022-08-05T07:33:16.075Z,26.32
2022-08-05T07:36:04.136Z,26.62
2022-08-05T07:38:43.654Z,26.98
2022-08-05T07:42:12.921Z,27.22
2022-08-05T07:44:14.046Z,27.59
2022-08-05T07:46:50.020Z,27.90
2022-08-05T07:49:19.587Z,28.22
2022-08-05T07:51:54.286Z,28.43
2022-08-05T07:54:31.021Z,28.63
2022-08-05T07:57:16.877Z,28.85
2022-08-05T07:59:52.358Z,29.07
2022-08-05T08:02:26.505Z,29.17
2022-08-05T08:04:55.834Z,29.21
2022-08-05T08:07:23.638Z,29.34
2022-08-05T08:09:54.871Z,29.49
2022-08-05T08:12:35.611Z,29.58
2022-08-05T08:15:14.001Z,29.53
2022-08-05T08:17:49.949Z,29.48
2022-08-05T08:20:45.091Z,29.45
2022-08-05T08:24:02.264Z,29.37
2022-08-05T08:26:02.783Z,29.20
2022-08-05T08:28:35.718Z,29.14
2022-08-05T08:31:08.050Z,29.09
2022-08-05T08:33:38.297Z,29.00
2022-08-05T08:38:55.793Z,28.96
2022-08-05T08:41:51.091Z,28.79
2022-08-05T08:45:23.173Z,28.57
2022-08-05T08:47:47.651Z,28.51
2022-08-05T08:50:22.384Z,28.47
2022-08-05T08:52:54.559Z,28.58
2022-08-05T08:56:02.882Z,28.71
2022-08-05T08:58:13.023Z,28.88
2022-08-05T09:00:44.610Z,28.89
2022-08-05T09:03:16.236Z,28.98
2022-08-05T09:06:08.765Z,29.00
2022-08-05T09:08:40.103Z,29.03
2022-08-05T09:11:08.792Z,28.98
2022-08-05T09:14:10.257Z,28.88
2022-08-05T09:16:31.011Z,28.84
2022-08-05T09:18:59.460Z,28.78
2022-08-05T09:22:23.267Z,28.71
2022-08-05T09:24:16.262Z,28.68
2022-08-05T09:26:56.599Z,28.61
2022-08-05T09:29:48.059Z,28.60
2022-08-05T09:32:51.273Z,28.58
2022-08-05T09:35:26.632Z,28.54
2022-08-05T09:38:17.046Z,28.43
2022-08-05T09:40:52.721Z,28.41
2022-08-05T09:43:40.514Z,28.45
2022-08-05T09:46:30.851Z,28.51
2022-08-05T09:49:07.625Z,28.53
2022-08-05T09:51:38.561Z,28.54
2022-08-05T09:54:09.438Z,28.61
2022-08-05T09:56:38.735Z,28.65
2022-08-05T09:59:11.322Z,28.59
2022-08-05T10:01:47.173Z,28.55
2022-08-05T10:04:16.202Z,28.58
2022-08-05T10:06:59.578Z,28.64
2022-08-05T10:09:29.753Z,28.72
2022-08-05T10:12:30.306Z,28.76
2022-08-05T10:15:20.020Z,28.75
2022-08-05T10:18:22.388Z,28.75
2022-08-05T10:20:52.457Z,28.78
2022-08-05T10:23:55.802Z,28.79
2022-08-05T10:26:15.193Z,28.82
2022-08-05T10:28:45.005Z,28.86
2022-08-05T10:32:52.644Z,28.83
2022-08-05T10:34:06.953Z,28.92
2022-08-05T10:36:38.374Z,28.98
2022-08-05T10:39:24.622Z,29.02
2022-08-05T10:42:15.415Z,29.05
2022-08-05T10:44:46.542Z,29.09
2022-08-05T10:47:26.154Z,29.15
2022-08-05T10:50:32.364Z,29.20
2022-08-05T10:53:01.145Z,29.24
2022-08-05T10:55:38.439Z,29.32
2022-08-05T10:58:20.612Z,29.37
2022-08-05T11:00:55.001Z,29.41
2022-08-05T11:03:31.001Z,29.43
2022-08-05T11:06:15.127Z,29.45
2022-08-05T11:09:17.158Z,29.48
2022-08-05T11:11:52.986Z,29.54
2022-08-05T11:17:59.813Z,29.54
2022-08-05T11:20:41.751Z,29.52
2022-08-05T11:23:33.745Z,29.57
2022-08-05T11:26:28.049Z,29.65
2022-08-05T11:28:58.067Z,29.75
2022-08-05T11:31:56.608Z,29.82
2022-08-05T11:34:36.702Z,29.82
2022-08-05T11:37:06.322Z,29.79
2022-08-05T11:39:55.248Z,29.89
2022-08-05T11:42:40.224Z,29.87
2022-08-05T11:45:14.393Z,29.84
2022-08-05T11:47:56.211Z,29.85
2022-08-05T11:50:25.846Z,29.86
2022-08-05T11:52:57.766Z,29.87
2022-08-05T11:55:31.676Z,29.82
2022-08-05T11:58:10.145Z,29.83
2022-08-05T12:00:41.373Z,29.81
2022-08-05T12:03:31.742Z,29.80
2022-08-05T12:06:06.686Z,29.77
2022-08-05T12:08:54.391Z,29.78
2022-08-05T12:11:28.423Z,29.76
2022-08-05T12:14:11.493Z,29.80
2022-08-05T12:16:41.545Z,29.84
2022-08-05T12:20:25.799Z,29.89
2022-08-05T12:22:06.106Z,29.96
2022-08-05T12:24:49.702Z,30.02
2022-08-05T12:27:32.475Z,30.04
2022-08-05T12:30:15.603Z,30.02
2022-08-05T12:32:45.976Z,30.02
2022-08-05T12:35:21.584Z,30.03
2022-08-05T12:37:49.936Z,30.04
2022-08-05T12:40:26.840Z,30.05
2022-08-05T12:42:57.346Z,30.08
2022-08-05T12:45:42.751Z,30.17
2022-08-05T12:48:17.668Z,30.24
2022-08-05T12:52:10.797Z,30.30
2022-08-05T12:54:05.036Z,30.37
2022-08-05T12:56:48.634Z,30.43
2022-08-05T12:59:46.705Z,30.45
2022-08-05T13:02:27.235Z,30.49
2022-08-05T13:04:58.733Z,30.53
2022-08-05T13:10:19.542Z,30.50
2022-08-05T13:12:51.023Z,30.41
2022-08-05T13:15:35.959Z,30.38
2022-08-05T13:18:19.518Z,30.39
2022-08-05T13:20:50.136Z,30.35
2022-08-05T13:23:22.642Z,30.35
2022-08-05T13:26:01.015Z,30.32
2022-08-05T13:28:29.288Z,30.28
2022-08-05T13:31:00.193Z,30.24
2022-08-05T13:34:22.158Z,30.18
2022-08-05T13:36:31.225Z,30.09
2022-08-05T13:38:59.003Z,30.04
2022-08-05T13:41:37.557Z,30.05
2022-08-05T13:44:06.066Z,30.04
2022-08-05T13:46:43.778Z,30.07
2022-08-05T13:49:21.331Z,30.12
2022-08-05T13:51:49.010Z,30.20
2022-08-05T13:54:20.820Z,30.25
2022-08-05T13:56:52.891Z,30.26
2022-08-05T13:59:24.393Z,30.23
2022-08-05T14:02:00.071Z,30.27
2022-08-05T14:04:50.470Z,30.29
2022-08-05T14:08:00.583Z,30.27
2022-08-05T14:10:28.992Z,30.16
2022-08-05T14:12:59.437Z,30.11
2022-08-05T14:16:04.719Z,30.15
2022-08-05T14:18:17.556Z,30.23
2022-08-05T14:20:48.257Z,30.28
2022-08-05T14:23:24.648Z,30.30
2022-08-05T14:25:58.047Z,30.29
2022-08-05T14:28:29.220Z,30.22
2022-08-05T14:30:58.394Z,30.21
2022-08-05T14:33:26.205Z,30.28
2022-08-05T14:35:54.764Z,30.28
2022-08-05T14:38:32.385Z,30.30
2022-08-05T14:41:06.105Z,30.32
2022-08-05T14:44:01.811Z,30.32
2022-08-05T14:46:28.050Z,30.27
2022-08-05T14:49:03.542Z,30.21
2022-08-05T14:51:37.563Z,30.16
2022-08-05T14:54:26.768Z,30.14
2022-08-05T14:56:55.556Z,30.10
2022-08-05T14:59:23.557Z,30.09
2022-08-05T15:01:53.642Z,30.11
2022-08-05T15:04:22.571Z,30.14
2022-08-05T15:06:51.096Z,30.17
2022-08-05T15:09:52.367Z,30.13
2022-08-05T15:12:09.459Z,30.16
2022-08-05T15:14:44.211Z,30.19
2022-08-05T15:17:45.602Z,30.16
2022-08-05T15:20:18.473Z,30.11
2022-08-05T15:22:53.979Z,30.10
2022-08-05T15:25:52.812Z,30.08
2022-08-05T15:28:14.547Z,30.07
2022-08-05T15:30:46.219Z,30.09
2022-08-05T15:33:53.762Z,30.08
2022-08-05T15:36:05.092Z,30.09
2022-08-05T15:38:41.746Z,30.09
2022-08-05T15:41:22.963Z,30.11
2022-08-05T15:43:54.640Z,30.07
2022-08-05T15:46:25.052Z,30.05
2022-08-05T15:48:58.747Z,30.03
2022-08-05T15:52:13.176Z,30.02
2022-08-05T15:54:18.024Z,30.00
2022-08-05T15:56:46.114Z,29.97
2022-08-05T15:59:21.664Z,29.94
2022-08-05T16:01:52.508Z,29.90
2022-08-05T16:04:25.414Z,29.88
2022-08-05T16:06:55.805Z,29.88
2022-08-05T16:09:24.964Z,29.85
2022-08-05T16:11:54.034Z,29.81
2022-08-05T16:14:23.092Z,29.77
2022-08-05T16:16:51.048Z,29.72
2022-08-05T16:20:02.793Z,29.71
2022-08-05T16:22:10.529Z,29.69
2022-08-05T16:24:40.381Z,29.66
2022-08-05T16:27:47.433Z,29.63
2022-08-05T16:30:23.412Z,29.62
2022-08-05T16:32:54.747Z,29.64
2022-08-05T16:35:27.806Z,29.59
2022-08-05T16:38:03.418Z,29.51
2022-08-05T16:40:51.966Z,29.44
2022-08-05T16:43:25.422Z,29.35
2022-08-05T16:46:07.314Z,29.28
2022-08-05T16:48:45.804Z,29.22
2022-08-05T16:51:14.012Z,29.17
2022-08-05T16:54:02.811Z,29.10
2022-08-05T16:56:33.922Z,29.02
2022-08-05T16:59:08.266Z,28.96
2022-08-05T17:01:53.192Z,28.90
2022-08-05T17:04:26.594Z,28.85
2022-08-05T17:07:01.036Z,28.81
2022-08-05T17:09:38.991Z,28.74
2022-08-05T17:12:22.544Z,28.65
2022-08-05T17:14:55.718Z,28.55
2022-08-05T17:17:23.368Z,28.46
2022-08-05T17:20:14.512Z,28.35
2022-08-05T17:22:42.655Z,28.26
2022-08-05T17:25:22.552Z,28.18
2022-08-05T17:28:00.478Z,28.08
2022-08-05T17:30:29.060Z,27.97
2022-08-05T17:32:56.981Z,27.86
2022-08-05T17:35:24.592Z,27.76
2022-08-05T17:37:52.391Z,27.63
2022-08-05T17:40:28.408Z,27.51
2022-08-05T17:42:59.331Z,27.38
2022-08-05T17:45:38.070Z,27.25
2022-08-05T17:48:08.115Z,27.12
2022-08-05T17:50:38.572Z,27.01
2022-08-05T17:53:08.713Z,26.92
2022-08-05T17:55:38.773Z,26.82
2022-08-05T17:58:11.231Z,26.73
2022-08-05T18:00:47.674Z,26.61
2022-08-05T18:03:48.393Z,26.51
2022-08-05T18:06:11.437Z,26.42
2022-08-05T18:08:44.499Z,26.33
2022-08-05T18:11:23.737Z,26.25
2022-08-05T18:13:53.126Z,26.17
2022-08-05T18:16:21.102Z,26.08
2022-08-05T18:18:50.094Z,25.99
2022-08-05T18:21:21.069Z,25.92
2022-08-05T18:23:53.886Z,25.85
2022-08-05T18:26:29.442Z,25.76
2022-08-05T18:29:00.205Z,25.65
2022-08-05T18:31:33.887Z,25.58
2022-08-05T18:34:05.944Z,25.49
2022-08-05T18:36:37.866Z,25.38
2022-08-05T18:39:09.649Z,25.29
2022-08-05T18:41:57.395Z,25.19
2022-08-05T18:44:33.142Z,25.09
2022-08-05T18:47:03.972Z,25.01
2022-08-05T18:49:57.836Z,24.93
2022-08-05T18:52:51.185Z,24.86
2022-08-05T18:55:21.722Z,24.81
2022-08-05T18:57:53.118Z,24.77
2022-08-05T19:00:28.451Z,24.75
2022-08-05T19:03:04.819Z,24.72
2022-08-05T19:06:13.455Z,24.72
2022-08-05T19:08:30.967Z,24.73
2022-08-05T19:10:59.756Z,24.73
2022-08-05T19:13:36.037Z,24.71
2022-08-05T19:16:22.093Z,24.70
2022-08-05T19:18:53.877Z,24.69
2022-08-05T19:21:26.189Z,24.69
2022-08-05T19:24:05.217Z,24.68
2022-08-05T19:26:36.789Z,24.69
2022-08-05T19:29:22.539Z,24.68
2022-08-05T19:31:50.948Z,24.67
2022-08-05T19:34:19.087Z,24.66
2022-08-05T19:36:47.315Z,24.65
2022-08-05T19:39:17.148Z,24.64
2022-08-05T19:42:06.103Z,24.63
2022-08-05T19:44:36.284Z,24.60
2022-08-05T19:47:06.617Z,24.59
2022-08-05T19:49:39.917Z,24.55
2022-08-05T19:52:29.306Z,24.54
2022-08-05T19:54:55.882Z,24.53
2022-08-05T19:57:49.320Z,24.52
2022-08-05T20:00:12.993Z,24.49
2022-08-05T20:02:40.692Z,24.47
2022-08-05T20:05:16.218Z,24.42
2022-08-05T20:07:47.212Z,24.40
2022-08-05T20:10:17.385Z,24.37
2022-08-05T20:12:49.269Z,24.36
2022-08-05T20:15:49.001Z,24.34
2022-08-05T20:18:10.950Z,24.32
2022-08-05T20:20:56.279Z,24.29
2022-08-05T20:23:39.524Z,24.27
2022-08-05T20:26:16.157Z,24.25
2022-08-05T20:28:47.978Z,24.24
2022-08-05T20:31:21.555Z,24.21
2022-08-05T20:33:51.483Z,24.20
2022-08-05T20:36:20.664Z,24.18
2022-08-05T20:38:54.644Z,24.18
2022-08-05T20:41:44.639Z,24.19
2022-08-05T20:44:30.697Z,24.20
2022-08-05T20:47:01.313Z,24.19
2022-08-05T20:49:39.619Z,24.18
2022-08-05T20:52:10.666Z,24.16
2022-08-05T20:54:59.144Z,24.14
2022-08-05T20:57:43.925Z,24.13
2022-08-05T21:00:34.944Z,24.16
2022-08-05T21:03:06.255Z,24.17
2022-08-05T21:05:53.925Z,24.16
2022-08-05T21:08:42.406Z,24.16
2022-08-05T21:12:09.458Z,24.14
2022-08-05T21:14:01.411Z,24.12
2022-08-05T21:16:30.821Z,24.10
2022-08-05T21:18:59.961Z,24.08
2022-08-05T21:21:39.805Z,24.06
2022-08-05T21:24:15.218Z,24.03
2022-08-05T21:26:53.713Z,24.01
2022-08-05T21:29:31.357Z,23.98
2022-08-05T21:32:03.612Z,23.96
2022-08-05T21:34:32.935Z,23.94
2022-08-05T21:37:04.893Z,23.94
2022-08-05T21:39:34.684Z,23.92
2022-08-05T21:42:07.708Z,23.89
2022-08-05T21:44:55.389Z,23.88
2022-08-05T21:47:54.713Z,23.86
2022-08-05T21:50:13.904Z,23.84
2022-08-05T21:52:47.354Z,23.83
2022-08-05T21:55:15.455Z,23.86
2022-08-05T21:57:43.090Z,23.93
2022-08-05T22:00:11.998Z,23.99
2022-08-05T22:02:44.618Z,24.11
2022-08-05T22:05:14.580Z,24.23
2022-08-05T22:07:58.296Z,24.33
2022-08-05T22:10:28.253Z,24.43
2022-08-05T22:12:57.805Z,24.49
2022-08-05T22:16:00.529Z,24.48
2022-08-05T22:18:15.391Z,24.44
2022-08-05T22:20:47.272Z,24.41
2022-08-05T22:24:01.325Z,24.38
2022-08-05T22:26:49.836Z,24.37
2022-08-05T22:29:19.019Z,24.43
2022-08-05T22:31:55.371Z,24.49
2022-08-05T22:34:28.794Z,24.51
2022-08-05T22:36:58.711Z,24.48
2022-08-05T22:39:33.330Z,24.42
2022-08-05T22:42:12.259Z,24.36
2022-08-05T22:44:48.471Z,24.30
2022-08-05T22:47:30.055Z,24.24
2022-08-05T22:50:19.931Z,24.18
2022-08-05T22:52:51.264Z,24.09
2022-08-05T22:55:21.827Z,24.01
2022-08-05T22:57:50.961Z,23.91
2022-08-05T23:00:21.349Z,23.83
2022-08-05T23:02:53.768Z,23.75
2022-08-05T23:05:22.642Z,23.67
2022-08-05T23:07:59.046Z,23.59
2022-08-05T23:10:29.956Z,23.52
2022-08-05T23:12:58.821Z,23.44
2022-08-05T23:15:29.394Z,23.37
2022-08-05T23:18:02.258Z,23.29
2022-08-05T23:20:32.786Z,23.21
2022-08-05T23:23:05.734Z,23.13
2022-08-05T23:25:51.179Z,23.03
2022-08-05T23:28:23.090Z,22.91
2022-08-05T23:30:53.196Z,22.77
2022-08-05T23:33:26.214Z,22.67
2022-08-05T23:36:13.826Z,22.58
2022-08-05T23:38:49.792Z,22.54
2022-08-05T23:41:17.514Z,22.49
2022-08-05T23:44:03.230Z,22.44
2022-08-05T23:46:37.459Z,22.40
2022-08-05T23:49:16.806Z,22.38
2022-08-05T23:52:05.743Z,22.38
2022-08-05T23:54:38.449Z,22.40
2022-08-05T23:57:07.317Z,22.41
